Time;durP1;ratioP1;P1;durP2;ratioP2;P2;SDS_P1;SDS_P2;PMS_P1;PMS_P2;Temp;Humidity;BMP_temperature;BMP_pressure;BME280_temperature;BME280_humidity;BME280_pressure;Samples;Min_cycle;Max_cycle;Signal;HPM_P1;HPM_P2
2021/08/17 00:02:05;;;;;;;9.80;6.70;;;;;;;23.12;58.97;100318.76;117404;1184;21852;-68
2021/08/17 00:04:33;;;;;;;10.40;6.30;;;;;;;23.10;58.88;100317.59;117501;1182;23497;-68
2021/08/17 00:07:22;;;;;;;9.20;6.40;;;;;;;23.09;58.75;100320.40;117354;1185;22945;-60
2021/08/17 00:09:50;;;;;;;8.30;6.40;;;;;;;23.06;58.59;100319.33;117459;1180;23001;-59
2021/08/17 00:12:18;;;;;;;10.10;7.00;;;;;;;23.02;58.69;100316.89;117421;1185;22526;-59
2021/08/17 00:15:08;;;;;;;9.70;7.10;;;;;;;22.98;58.58;100319.48;117333;1185;21863;-68
2021/08/17 00:17:36;;;;;;;11.60;6.80;;;;;;;22.96;58.56;100318.17;117416;1182;21870;-59
2021/08/17 00:20:06;;;;;;;8.90;6.60;;;;;;;22.94;58.44;100319.35;117420;1184;22929;-59
2021/08/17 00:22:36;;;;;;;10.30;6.60;;;;;;;22.94;58.41;100320.29;117429;1181;21866;-67
2021/08/17 00:25:07;;;;;;;7.60;6.50;;;;;;;22.93;58.21;100318.04;117393;1180;23546;-68
2021/08/17 00:27:39;;;;;;;9.40;6.40;;;;;;;22.87;58.22;100317.11;117355;1183;23461;-68
2021/08/17 00:30:12;;;;;;;9.10;6.50;;;;;;;22.83;58.19;100320.98;117444;1184;23474;-67
2021/08/17 00:32:40;;;;;;;10.30;6.90;;;;;;;22.88;57.89;100321.88;117372;1182;22658;-67
2021/08/17 00:35:09;;;;;;;8.40;6.50;;;;;;;22.90;57.76;100322.16;117409;1183;21860;-59
2021/08/17 00:37:42;;;;;;;10.40;6.60;;;;;;;22.85;57.65;100320.48;117339;1182;23475;-68
2021/08/17 00:40:11;;;;;;;8.10;5.80;;;;;;;22.80;57.58;100323.84;117461;1185;23445;-59
2021/08/17 00:42:40;;;;;;;8.50;6.00;;;;;;;22.77;57.44;100327.28;117345;1184;21855;-68
2021/08/17 00:45:27;;;;;;;8.50;5.80;;;;;;;22.74;57.28;100324.59;117464;1185;21845;-59
2021/08/17 00:47:56;;;;;;;7.90;5.80;;;;;;;22.70;57.26;100319.84;117415;1182;21858;-67
2021/08/17 00:50:26;;;;;;;8.00;6.00;;;;;;;22.65;57.38;100318.88;117407;1185;22706;-59
2021/08/17 00:52:55;;;;;;;7.80;5.80;;;;;;;22.60;57.28;100317.93;117423;1183;23557;-65
2021/08/17 00:55:24;;;;;;;7.60;6.00;;;;;;;22.56;57.21;100318.56;117478;1183;24197;-68
2021/08/17 00:57:52;;;;;;;9.40;6.40;;;;;;;22.53;57.29;100315.20;117469;1182;23555;-60
2021/08/17 01:00:22;;;;;;;10.70;6.80;;;;;;;22.49;57.42;100314.38;117473;1183;23670;-70
2021/08/17 01:02:50;;;;;;;8.90;6.20;;;;;;;22.45;57.34;100312.64;117402;1182;23551;-60
2021/08/17 01:05:23;;;;;;;8.80;6.00;;;;;;;22.43;57.23;100310.42;117401;1185;23557;-60
2021/08/17 01:07:51;;;;;;;8.70;6.20;;;;;;;22.42;57.37;100307.98;117376;1184;21855;-60
2021/08/17 01:10:20;;;;;;;9.10;6.10;;;;;;;22.40;57.29;100310.60;117414;1182;23452;-63
2021/08/17 01:12:48;;;;;;;9.50;6.20;;;;;;;22.39;57.30;100309.98;117389;1185;21845;-67
2021/08/17 01:15:36;;;;;;;9.90;6.60;;;;;;;22.39;57.14;100307.27;117410;1185;22925;-60
2021/08/17 01:18:07;;;;;;;8.20;6.10;;;;;;;22.40;57.18;100307.54;117406;1182;21855;-60
2021/08/17 01:20:35;;;;;;;8.90;5.80;;;;;;;22.42;57.17;100306.39;117424;1184;23474;-70
2021/08/17 01:23:03;;;;;;;11.20;6.00;;;;;;;22.40;57.17;100306.48;117399;1182;23472;-58
2021/08/17 01:25:34;;;;;;;8.90;6.30;;;;;;;22.38;57.12;100306.26;117442;1181;23452;-58
2021/08/17 01:28:14;;;;;;;9.20;5.90;;;;;;;22.36;56.99;100306.18;117413;1182;22013;-58
2021/08/17 01:30:42;;;;;;;8.80;6.00;;;;;;;22.33;56.99;100300.13;117471;1184;21877;-66
2021/08/17 01:33:10;;;;;;;8.60;5.90;;;;;;;22.31;56.79;100298.80;117398;1182;23484;-58
2021/08/17 01:35:38;;;;;;;9.30;6.10;;;;;;;22.31;56.82;100297.06;117424;1185;21902;-70
2021/08/17 01:38:06;;;;;;;8.90;6.10;;;;;;;22.34;56.71;100297.58;117359;1185;21846;-70
2021/08/17 01:40:35;;;;;;;10.80;6.30;;;;;;;22.36;56.57;100298.17;117339;1185;21857;-61
2021/08/17 01:43:03;;;;;;;10.80;6.60;;;;;;;22.32;56.72;100296.29;117312;1184;21855;-69
2021/08/17 01:45:32;;;;;;;14.00;6.90;;;;;;;22.30;56.76;100295.86;117477;1182;23490;-61
2021/08/17 01:48:00;;;;;;;9.40;6.30;;;;;;;22.28;56.66;100292.60;117472;1184;21889;-69
2021/08/17 01:50:46;;;;;;;8.80;6.00;;;;;;;22.25;56.77;100295.60;117424;1185;21855;-68
2021/08/17 01:53:14;;;;;;;8.40;5.70;;;;;;;22.23;56.72;100293.95;117437;1184;23451;-60
2021/08/17 01:55:45;;;;;;;9.50;6.20;;;;;;;22.21;56.64;100291.23;117342;1182;22318;-69
2021/08/17 01:58:13;;;;;;;7.70;6.10;;;;;;;22.17;56.65;100292.38;117403;1182;23449;-68
2021/08/17 02:00:49;;;;;;;11.00;6.60;;;;;;;22.13;56.85;100292.93;117439;1182;23448;-61
2021/08/17 02:03:17;;;;;;;9.80;6.30;;;;;;;22.09;56.95;100292.13;117403;1185;23449;-69
2021/08/17 02:05:46;;;;;;;9.10;6.20;;;;;;;22.06;56.95;100292.02;117456;1182;21855;-69
2021/08/17 02:08:25;;;;;;;11.60;6.30;;;;;;;22.00;57.08;100287.32;117404;1185;21859;-61
2021/08/17 02:10:55;;;;;;;7.90;5.70;;;;;;;21.92;57.16;100282.32;117377;1184;22989;-59
2021/08/17 02:13:24;;;;;;;29.40;7.80;;;;;;;21.85;57.41;100282.04;117454;1182;23458;-60
2021/08/17 02:15:53;;;;;;;46.10;9.10;;;;;;;21.79;57.55;100281.49;117395;1182;21855;-59
2021/08/17 02:18:21;;;;;;;24.40;8.30;;;;;;;21.75;57.69;100280.45;117400;1183;22810;-68
2021/08/17 02:20:50;;;;;;;21.90;7.60;;;;;;;21.74;57.94;100283.02;117432;1184;23473;-68
2021/08/17 02:23:18;;;;;;;23.30;8.00;;;;;;;21.74;58.04;100281.08;117374;1182;23577;-67
2021/08/17 02:25:47;;;;;;;17.70;7.80;;;;;;;21.73;58.09;100280.75;117477;1184;22928;-68
2021/08/17 02:28:15;;;;;;;22.30;8.70;;;;;;;21.72;58.11;100280.27;117411;1185;22449;-67
2021/08/17 02:30:43;;;;;;;18.90;7.20;;;;;;;21.71;58.20;100278.90;117435;1185;23490;-68
2021/08/17 02:33:20;;;;;;;13.30;7.20;;;;;;;21.70;58.16;100279.16;117394;1182;23483;-68
2021/08/17 02:35:50;;;;;;;11.50;6.70;;;;;;;21.69;58.13;100280.80;117330;1185;21816;-68
2021/08/17 02:38:18;;;;;;;7.90;6.30;;;;;;;21.68;58.11;100277.86;117340;1185;21865;-61
2021/08/17 02:40:47;;;;;;;12.20;7.90;;;;;;;21.67;58.00;100277.55;117489;1183;21899;-67
2021/08/17 02:43:17;;;;;;;9.60;6.70;;;;;;;21.66;57.89;100282.44;117476;1185;23554;-67
2021/08/17 02:45:45;;;;;;;16.90;7.70;;;;;;;21.64;57.89;100280.75;117451;1185;21858;-67
2021/08/17 02:48:14;;;;;;;15.50;7.40;;;;;;;21.64;57.79;100281.98;117477;1182;23452;-67
2021/08/17 02:50:44;;;;;;;14.50;6.90;;;;;;;21.64;57.84;100287.52;117414;1184;21855;-69
2021/08/17 02:53:14;;;;;;;12.40;6.70;;;;;;;21.62;57.85;100288.55;117400;1185;21895;-60
2021/08/17 02:55:42;;;;;;;11.00;6.80;;;;;;;21.60;57.81;100290.24;117433;1188;21857;-67
2021/08/17 02:58:10;;;;;;;9.30;6.40;;;;;;;21.57;57.86;100289.38;117392;1183;23439;-60
2021/08/17 03:00:42;;;;;;;13.60;6.70;;;;;;;21.53;57.86;100287.60;117407;1185;21860;-60
2021/08/17 03:03:11;;;;;;;10.70;6.50;;;;;;;21.49;58.02;100291.28;117377;1182;22107;-60
2021/08/17 03:05:39;;;;;;;14.10;8.00;;;;;;;21.46;58.00;100295.17;117439;1184;22630;-60
2021/08/17 03:08:19;;;;;;;11.80;6.20;;;;;;;21.46;57.99;100294.84;117398;1182;23448;-67
2021/08/17 03:10:49;;;;;;;12.70;6.10;;;;;;;21.45;58.00;100296.34;117453;1175;21843;-59
2021/08/17 03:13:37;;;;;;;21.00;7.20;;;;;;;21.45;57.98;100299.54;117418;1185;21852;-67
2021/08/17 03:16:05;;;;;;;12.70;7.10;;;;;;;21.45;57.87;100303.44;117324;1183;23456;-67
2021/08/17 03:18:53;;;;;;;10.90;7.30;;;;;;;21.42;57.75;100306.83;117407;1186;21855;-59
2021/08/17 03:21:41;;;;;;;10.30;6.30;;;;;;;21.38;57.71;100311.52;117379;1185;22971;-66
2021/08/17 03:24:09;;;;;;;17.20;8.20;;;;;;;21.35;57.94;100309.23;117483;1185;21830;-66
2021/08/17 03:26:37;;;;;;;13.00;6.60;;;;;;;21.33;57.97;100307.35;117478;1184;22927;-62
2021/08/17 03:29:05;;;;;;;30.10;8.50;;;;;;;21.31;58.11;100303.38;117375;1183;21855;-68
2021/08/17 03:31:34;;;;;;;50.00;9.30;;;;;;;21.31;58.18;100302.52;117395;1183;23239;-68
2021/08/17 03:34:02;;;;;;;55.50;10.10;;;;;;;21.32;58.35;100305.48;117439;1182;21893;-67
2021/08/17 03:36:31;;;;;;;40.80;9.50;;;;;;;21.35;58.52;100304.77;117413;1182;21855;-60
2021/08/17 03:39:01;;;;;;;44.40;10.00;;;;;;;21.38;58.62;100307.10;117347;1188;21859;-60
2021/08/17 03:41:29;;;;;;;21.90;7.60;;;;;;;21.41;58.66;100308.53;117418;1182;21848;-60
2021/08/17 03:43:57;;;;;;;24.40;7.40;;;;;;;21.49;58.49;100307.11;117352;1186;21858;-70
2021/08/17 03:46:27;;;;;;;18.80;7.10;;;;;;;21.74;58.13;100302.63;117516;1185;23465;-71
2021/08/17 03:48:55;;;;;;;16.30;6.50;;;;;;;22.03;57.63;100300.75;117366;1185;22987;-60
2021/08/17 03:51:23;;;;;;;20.00;7.40;;;;;;;22.19;57.44;100300.98;117408;1185;23451;-60
2021/08/17 03:53:52;;;;;;;18.00;7.50;;;;;;;22.23;57.26;100302.36;117400;1183;23462;-60
2021/08/17 03:56:20;;;;;;;12.30;6.90;;;;;;;22.24;57.38;100300.36;117357;1185;21848;-60
2021/08/17 03:58:49;;;;;;;13.10;7.70;;;;;;;22.23;57.36;100299.48;117412;1185;21852;-67
2021/08/17 04:01:19;;;;;;;14.00;8.20;;;;;;;22.25;57.35;100296.19;117521;1184;23448;-61
2021/08/17 04:03:49;;;;;;;24.70;7.80;;;;;;;22.25;57.40;100297.98;117466;1182;21949;-67
2021/08/17 04:06:17;;;;;;;22.40;8.60;;;;;;;22.24;57.47;100295.71;117429;1186;21839;-66
2021/08/17 04:08:47;;;;;;;23.00;8.20;;;;;;;22.23;57.89;100294.68;117410;1182;21855;-66
2021/08/17 04:11:16;;;;;;;25.40;7.60;;;;;;;22.24;58.15;100292.29;117454;1183;22641;-67
2021/08/17 04:13:45;;;;;;;18.50;7.70;;;;;;;22.28;58.46;100293.11;117465;1184;23452;-66
2021/08/17 04:16:14;;;;;;;13.80;7.30;;;;;;;22.35;58.35;100297.48;117347;1184;23455;-66
2021/08/17 04:18:59;;;;;;;15.50;7.60;;;;;;;22.46;58.55;100296.66;117408;1183;21942;-61
2021/08/17 04:21:47;;;;;;;12.70;8.30;;;;;;;22.57;58.43;100297.56;117329;1186;21864;-66
2021/08/17 04:24:15;;;;;;;20.70;9.10;;;;;;;22.64;58.18;100300.54;117435;1179;23475;-66
2021/08/17 04:26:44;;;;;;;17.60;9.60;;;;;;;22.74;58.75;100298.66;117372;1184;23446;-68
2021/08/17 04:29:12;;;;;;;16.00;10.30;;;;;;;22.91;58.81;100297.20;117402;1185;21855;-60
2021/08/17 04:31:41;;;;;;;15.00;8.10;;;;;;;23.06;58.65;100294.96;117380;1185;23452;-61
2021/08/17 04:34:09;;;;;;;20.30;8.90;;;;;;;23.26;58.60;100294.39;117411;1184;22835;-60
2021/08/17 04:36:38;;;;;;;13.30;7.90;;;;;;;23.48;58.74;100294.17;117478;1182;23452;-66
2021/08/17 04:39:06;;;;;;;23.90;8.20;;;;;;;23.67;58.51;100296.33;117491;1184;23458;-66
2021/08/17 04:41:35;;;;;;;13.70;7.90;;;;;;;23.83;58.56;100293.77;117413;1185;23481;-61
2021/08/17 04:44:12;;;;;;;10.50;7.40;;;;;;;23.98;58.40;100294.20;117392;1185;23088;-66
2021/08/17 04:46:40;;;;;;;12.00;7.60;;;;;;;24.09;58.19;100289.30;117377;1183;22096;-67
2021/08/17 04:49:10;;;;;;;14.10;8.10;;;;;;;24.22;58.25;100292.17;117373;1181;23590;-61
2021/08/17 04:51:41;;;;;;;16.70;9.00;;;;;;;24.35;58.22;100291.24;117402;1181;21863;-67
2021/08/17 04:54:10;;;;;;;22.40;9.90;;;;;;;24.42;58.30;100295.23;117459;1185;21817;-68
2021/08/17 04:56:38;;;;;;;17.80;9.50;;;;;;;24.51;58.07;100294.98;117393;1184;21842;-63
2021/08/17 04:59:06;;;;;;;23.30;9.30;;;;;;;24.66;57.41;100295.88;117517;1182;23576;-67
2021/08/17 05:01:35;;;;;;;20.10;9.10;;;;;;;24.82;57.09;100298.48;117404;1185;21846;-73
2021/08/17 05:04:07;;;;;;;18.00;8.70;;;;;;;24.97;56.43;100297.72;117389;1185;22339;-62
2021/08/17 05:06:36;;;;;;;21.80;8.60;;;;;;;25.13;56.06;100304.65;117475;1185;23170;-61
2021/08/17 05:09:04;;;;;;;24.10;9.50;;;;;;;25.23;55.95;100311.07;117431;1185;23473;-61
2021/08/17 05:11:34;;;;;;;20.10;8.80;;;;;;;25.44;55.70;100307.59;117405;1182;23500;-62
2021/08/17 05:14:08;;;;;;;15.60;8.70;;;;;;;25.64;55.56;100309.48;117392;1184;23535;-68
2021/08/17 05:16:37;;;;;;;17.50;9.70;;;;;;;25.76;55.47;100318.77;117443;1185;21854;-63
2021/08/17 05:19:05;;;;;;;16.90;8.90;;;;;;;25.96;54.70;100317.98;117420;1183;21857;-62
2021/08/17 05:21:33;;;;;;;22.70;7.40;;;;;;;26.13;54.11;100313.98;117343;1186;21858;-71
2021/08/17 05:24:21;;;;;;;13.10;7.50;;;;;;;26.31;53.72;100313.98;117407;1184;22249;-62
2021/08/17 05:26:49;;;;;;;15.80;8.00;;;;;;;26.49;53.35;100313.44;117405;1182;21845;-71
2021/08/17 05:29:17;;;;;;;15.30;7.90;;;;;;;26.69;52.83;100314.03;117440;1182;23452;-73
2021/08/17 05:31:47;;;;;;;13.40;8.20;;;;;;;26.91;52.57;100316.45;117357;1184;22898;-62
2021/08/17 05:34:16;;;;;;;12.80;7.90;;;;;;;27.11;52.27;100312.04;117409;1179;21996;-61
2021/08/17 05:36:45;;;;;;;12.00;7.60;;;;;;;27.41;51.94;100312.34;117419;1182;22916;-62
2021/08/17 05:39:13;;;;;;;13.20;8.10;;;;;;;27.59;51.68;100310.94;117388;1184;23459;-70
2021/08/17 05:41:41;;;;;;;10.90;6.80;;;;;;;27.76;50.95;100309.14;117457;1185;21830;-62
2021/08/17 05:44:13;;;;;;;9.50;6.60;;;;;;;27.97;50.47;100311.56;117404;1181;23498;-62
2021/08/17 05:46:41;;;;;;;11.30;6.30;;;;;;;28.15;49.67;100311.45;117333;1186;21860;-69
2021/08/17 05:49:10;;;;;;;10.20;6.40;;;;;;;28.35;49.48;100314.52;117352;1182;24158;-63
2021/08/17 05:51:38;;;;;;;8.10;5.50;;;;;;;28.57;49.40;100314.08;117468;1183;23474;-69
2021/08/17 05:54:07;;;;;;;9.40;6.40;;;;;;;28.75;48.77;100310.30;117428;1185;23476;-72
2021/08/17 05:56:35;;;;;;;11.00;5.80;;;;;;;28.95;48.39;100310.85;117515;1184;21859;-62
2021/08/17 05:59:04;;;;;;;8.80;5.90;;;;;;;29.12;47.98;100314.73;117377;1184;24243;-75
2021/08/17 06:01:33;;;;;;;8.50;5.60;;;;;;;29.32;47.62;100314.52;117424;1185;23484;-63
2021/08/17 06:04:03;;;;;;;;;;;;;;;29.55;46.97;100315.17;117447;1185;23452;-73
2021/08/17 06:06:32;;;;;;;13.30;6.50;;;;;;;29.75;46.63;100313.84;117361;1179;21860;-75
2021/08/17 06:09:00;;;;;;;14.00;6.70;;;;;;;29.94;45.97;100313.45;117408;1185;23449;-74
2021/08/17 06:11:50;;;;;;;13.90;6.70;;;;;;;30.13;45.11;100313.74;117410;1183;23560;-63
2021/08/17 06:14:20;;;;;;;13.40;6.30;;;;;;;30.31;45.18;100315.42;117504;1182;22979;-63
2021/08/17 06:16:51;;;;;;;12.70;7.00;;;;;;;30.48;44.49;100313.39;117447;1183;21860;-71
2021/08/17 06:19:20;;;;;;;9.40;5.50;;;;;;;30.65;43.86;100310.21;117358;1185;23497;-71
2021/08/17 06:21:52;;;;;;;13.10;5.30;;;;;;;30.87;43.28;100311.06;117383;1186;23569;-71
2021/08/17 06:24:20;;;;;;;8.10;4.90;;;;;;;31.06;43.40;100312.98;117349;1183;23648;-69
2021/08/17 06:26:48;;;;;;;6.70;4.40;;;;;;;31.27;42.41;100312.94;117446;1185;24329;-64
2021/08/17 06:29:16;;;;;;;8.00;5.10;;;;;;;31.46;41.19;100313.61;117415;1185;21916;-63
2021/08/17 06:31:56;;;;;;;9.30;4.80;;;;;;;31.64;40.70;100315.38;117208;1185;23554;-64
2021/08/17 06:34:29;;;;;;;9.30;4.90;;;;;;;31.78;40.49;100319.55;117389;1182;22946;-74
2021/08/17 06:36:57;;;;;;;8.10;4.30;;;;;;;31.95;40.43;100324.88;117335;1184;21896;-74
2021/08/17 06:39:26;;;;;;;7.30;3.90;;;;;;;32.08;38.31;100325.16;117309;1185;21847;-73
2021/08/17 06:41:54;;;;;;;5.60;3.90;;;;;;;32.03;37.44;100326.02;117314;1185;24173;-62
2021/08/17 06:44:22;;;;;;;7.10;4.60;;;;;;;32.04;36.97;100325.20;117382;1182;22624;-64
2021/08/17 06:46:55;;;;;;;6.20;4.20;;;;;;;32.07;37.16;100324.21;117475;1185;23552;-68
2021/08/17 06:49:23;;;;;;;12.30;4.10;;;;;;;32.14;37.25;100327.31;117305;1184;22797;-73
2021/08/17 06:51:51;;;;;;;11.30;4.60;;;;;;;32.26;37.33;100323.47;117412;1181;23586;-62
2021/08/17 06:54:20;;;;;;;9.70;4.40;;;;;;;32.40;37.00;100321.45;117389;1185;22809;-65
2021/08/17 06:56:48;;;;;;;5.80;4.20;;;;;;;32.54;37.22;100322.69;117461;1182;23555;-71
2021/08/17 06:59:17;;;;;;;8.60;4.40;;;;;;;32.73;36.66;100318.53;117363;1185;23554;-60
2021/08/17 07:01:46;;;;;;;6.00;4.50;;;;;;;32.94;36.18;100314.19;117418;1183;23563;-60
2021/08/17 07:04:15;;;;;;;10.40;4.50;;;;;;;33.19;35.58;100313.79;117361;1185;24158;-70
2021/08/17 07:06:44;;;;;;;13.40;5.20;;;;;;;33.43;34.71;100312.63;117372;1185;23567;-66
2021/08/17 07:09:12;;;;;;;8.50;4.00;;;;;;;33.57;34.06;100316.17;117383;1185;24689;-60
2021/08/17 07:11:40;;;;;;;5.50;4.00;;;;;;;33.61;32.79;100319.62;117381;1185;21981;-69
2021/08/17 07:14:08;;;;;;;10.00;4.30;;;;;;;33.56;31.81;100316.21;117362;1185;22522;-69
2021/08/17 07:16:37;;;;;;;8.70;3.80;;;;;;;33.50;31.84;100316.80;117420;1185;24191;-60
2021/08/17 07:19:06;;;;;;;6.40;4.10;;;;;;;33.52;32.31;100321.20;117422;1184;23544;-71
2021/08/17 07:21:37;;;;;;;8.90;4.00;;;;;;;33.60;32.51;100326.30;117404;1185;24181;-61
2021/08/17 07:24:06;;;;;;;6.50;3.90;;;;;;;33.69;31.97;100326.75;117389;1185;21862;-64
2021/08/17 07:26:34;;;;;;;6.90;3.40;;;;;;;33.82;31.74;100325.94;117410;1185;23466;-61
2021/08/17 07:29:03;;;;;;;8.70;4.20;;;;;;;33.94;31.32;100322.54;117330;1182;21848;-60
2021/08/17 07:31:34;;;;;;;7.50;4.20;;;;;;;34.04;31.71;100318.42;117363;1184;23451;-69
2021/08/17 07:34:05;;;;;;;4.80;3.70;;;;;;;34.23;31.69;100318.74;117359;1184;22633;-70
2021/08/17 07:36:36;;;;;;;6.20;4.20;;;;;;;34.44;31.52;100318.75;117471;1182;21923;-62
2021/08/17 07:39:05;;;;;;;9.90;3.80;;;;;;;34.54;30.91;100317.35;117475;1182;21845;-61
2021/08/17 07:41:33;;;;;;;26.50;6.10;;;;;;;34.58;30.70;100316.38;117376;1185;23563;-70
2021/08/17 07:44:02;;;;;;;11.10;4.60;;;;;;;34.64;30.85;100317.54;117392;1184;22913;-62
2021/08/17 07:46:30;;;;;;;12.40;5.30;;;;;;;34.77;31.23;100317.61;117408;1185;21848;-68
2021/08/17 07:48:58;;;;;;;6.60;4.70;;;;;;;34.96;31.08;100314.54;117335;1183;22945;-60
2021/08/17 07:51:27;;;;;;;6.70;4.00;;;;;;;35.15;31.32;100311.08;117367;1184;21859;-59
2021/08/17 07:53:55;;;;;;;8.00;4.50;;;;;;;35.37;30.83;100307.94;117483;1184;21861;-60
2021/08/17 07:56:24;;;;;;;5.90;4.20;;;;;;;35.59;29.91;100302.46;117406;1185;24176;-60
2021/08/17 07:58:52;;;;;;;6.40;4.70;;;;;;;35.81;29.77;100302.55;117420;1183;22888;-69
2021/08/17 08:01:20;;;;;;;8.70;4.00;;;;;;;36.04;29.32;100303.77;117437;1184;23485;-69
2021/08/17 08:03:49;;;;;;;5.90;3.50;;;;;;;36.15;28.29;100301.74;117435;1182;23554;-59
2021/08/17 08:06:18;;;;;;;6.80;3.10;;;;;;;36.21;27.84;100303.71;117339;1182;21855;-69
2021/08/17 08:08:46;;;;;;;6.00;3.50;;;;;;;36.25;27.00;100304.44;117454;1181;22923;-59
2021/08/17 08:11:15;;;;;;;5.90;3.20;;;;;;;36.26;26.31;100304.91;117409;1184;24162;-69
2021/08/17 08:13:44;;;;;;;19.60;4.20;;;;;;;36.26;26.01;100299.80;117366;1185;24887;-70
2021/08/17 08:16:13;;;;;;;5.70;3.30;;;;;;;36.41;25.77;100295.02;117425;1185;21845;-60
2021/08/17 08:18:41;;;;;;;6.50;3.20;;;;;;;36.61;26.07;100295.70;117525;1185;24175;-60
2021/08/17 08:21:14;;;;;;;4.80;3.00;;;;;;;36.80;25.58;100293.38;117479;1184;22890;-69
2021/08/17 08:23:42;;;;;;;10.00;3.80;;;;;;;36.87;25.64;100292.07;117391;1184;23452;-59
2021/08/17 08:26:11;;;;;;;4.20;2.80;;;;;;;36.97;25.32;100290.89;117530;1184;23552;-68
2021/08/17 08:28:40;;;;;;;6.40;3.20;;;;;;;37.02;25.15;100289.38;117474;1185;23452;-69
2021/08/17 08:31:08;;;;;;;19.30;4.70;;;;;;;37.02;24.99;100286.00;117450;1183;24182;-58
2021/08/17 08:33:36;;;;;;;9.70;3.60;;;;;;;37.05;24.89;100286.98;117485;1181;23466;-58
2021/08/17 08:36:05;;;;;;;7.90;2.80;;;;;;;37.03;24.56;100281.70;117457;1183;23576;-68
2021/08/17 08:38:33;;;;;;;4.30;2.90;;;;;;;37.06;24.57;100282.29;117491;1185;21857;-62
2021/08/17 08:41:01;;;;;;;7.60;3.70;;;;;;;37.02;24.84;100277.73;117421;1182;21859;-67
2021/08/17 08:43:30;;;;;;;7.70;3.50;;;;;;;37.03;25.56;100276.36;117468;1184;21844;-66
2021/08/17 08:46:06;;;;;;;5.50;3.40;;;;;;;37.10;25.50;100277.30;117328;1185;23501;-58
2021/08/17 08:48:36;;;;;;;7.40;3.10;;;;;;;37.08;25.28;100280.20;117356;1185;22625;-66
2021/08/17 08:51:05;;;;;;;6.40;3.20;;;;;;;37.01;24.83;100279.91;117393;1186;22645;-62
2021/08/17 08:53:34;;;;;;;5.00;3.10;;;;;;;36.96;24.76;100280.64;117301;1186;23469;-68
2021/08/17 08:56:02;;;;;;;6.20;3.20;;;;;;;37.02;24.96;100283.59;117432;1183;23445;-58
2021/08/17 08:58:31;;;;;;;4.60;3.30;;;;;;;37.10;24.47;100281.39;117584;1182;21858;-58
2021/08/17 09:00:59;;;;;;;4.70;3.40;;;;;;;37.17;24.68;100283.44;117347;1183;21861;-69
2021/08/17 09:03:43;;;;;;;5.90;3.70;;;;;;;37.24;24.78;100281.69;117325;1185;22977;-73
2021/08/17 09:06:19;;;;;;;7.00;3.50;;;;;;;37.27;24.99;100283.29;117455;1183;21842;-58
2021/08/17 09:08:48;;;;;;;7.30;3.30;;;;;;;37.36;25.06;100280.61;117444;1184;23445;-58
2021/08/17 09:11:26;;;;;;;6.50;3.00;;;;;;;37.46;24.69;100271.10;117396;1176;24270;-59
2021/08/17 09:13:54;;;;;;;13.00;3.50;;;;;;;37.57;24.71;100266.11;117347;1182;22625;-70
2021/08/17 09:16:30;;;;;;;6.00;3.60;;;;;;;37.76;24.76;100264.52;117583;1185;23447;-59
2021/08/17 09:19:41;;;;;;;7.30;3.40;;;;;;;38.06;24.50;100262.42;117409;1184;22914;-58
2021/08/17 09:22:20;;;;;;;9.50;3.40;;;;;;;38.37;24.39;100261.58;117323;1184;23554;-70
2021/08/17 09:24:49;;;;;;;8.00;3.60;;;;;;;38.60;24.19;100258.28;117370;1185;21855;-70
2021/08/17 09:27:19;;;;;;;;;;;;;;;38.67;23.92;100259.94;117503;1183;22304;-74
2021/08/17 09:29:52;;;;;;;8.20;3.30;;;;;;;38.54;23.97;100258.42;117452;1182;21922;-62
2021/08/17 09:32:22;;;;;;;8.70;3.20;;;;;;;38.45;23.87;100259.20;117429;1183;22997;-69
2021/08/17 09:34:53;;;;;;;4.90;3.10;;;;;;;38.41;24.29;100261.16;117424;1183;21860;-58
2021/08/17 09:37:28;;;;;;;6.10;2.90;;;;;;;38.66;24.04;100260.27;117425;1176;23656;-71
2021/08/17 09:39:59;;;;;;;14.10;3.80;;;;;;;38.84;23.85;100259.44;117464;1182;23554;-58
2021/08/17 09:42:34;;;;;;;5.80;3.30;;;;;;;38.98;23.86;100260.45;117405;1179;23587;-58
2021/08/17 09:45:09;;;;;;;6.60;3.80;;;;;;;39.17;23.51;100253.48;117372;1182;23462;-59
2021/08/17 09:47:41;;;;;;;9.60;4.10;;;;;;;39.36;23.26;100255.75;117453;1184;21905;-65
2021/08/17 09:50:26;;;;;;;7.10;3.50;;;;;;;39.42;22.80;100254.27;117485;1185;21864;-66
2021/08/17 09:53:18;;;;;;;7.40;3.90;;;;;;;39.42;22.62;100250.08;117400;1183;21868;-69
2021/08/17 09:55:57;;;;;;;5.30;3.60;;;;;;;39.34;22.45;100250.37;117434;1185;21858;-58
2021/08/17 09:58:37;;;;;;;6.40;3.70;;;;;;;39.22;22.92;100249.55;117338;1186;22625;-58
2021/08/17 10:01:07;;;;;;;9.70;3.60;;;;;;;39.33;22.91;100247.95;117435;1180;22963;-69
2021/08/17 10:03:36;;;;;;;6.50;3.30;;;;;;;39.51;22.11;100246.76;117411;1183;23449;-69
2021/08/17 10:06:04;;;;;;;4.00;3.30;;;;;;;39.75;22.28;100240.89;117448;1185;23646;-60
2021/08/17 10:08:33;;;;;;;7.00;3.90;;;;;;;39.88;21.99;100236.34;117408;1184;23494;-67
2021/08/17 10:11:04;;;;;;;6.70;4.00;;;;;;;39.85;21.87;100241.86;117385;1185;21866;-60
2021/08/17 10:13:37;;;;;;;10.00;3.90;;;;;;;39.89;21.78;100242.67;117491;1185;23554;-68
2021/08/17 10:16:06;;;;;;;8.00;3.60;;;;;;;39.94;21.41;100241.06;117431;1184;22620;-58
2021/08/17 10:18:57;;;;;;;5.80;4.00;;;;;;;39.81;21.04;100243.17;117410;1184;21898;-70
2021/08/17 10:21:27;;;;;;;7.30;3.50;;;;;;;39.71;20.58;100243.13;117417;1185;24164;-67
2021/08/17 10:24:26;;;;;;;5.90;4.10;;;;;;;39.63;20.99;100241.88;117357;1186;23556;-57
2021/08/17 10:27:27;;;;;;;17.80;4.40;;;;;;;39.56;21.38;100238.54;117327;1185;22318;-67
2021/08/17 10:30:07;;;;;;;5.40;3.40;;;;;;;39.55;21.15;100239.59;117424;1182;21861;-66
2021/08/17 10:32:42;;;;;;;11.70;3.80;;;;;;;39.51;21.10;100235.33;117441;1185;23659;-73
2021/08/17 10:35:29;;;;;;;10.40;3.80;;;;;;;39.51;21.00;100229.44;117383;1182;23484;-68
2021/08/17 10:38:08;;;;;;;8.90;3.50;;;;;;;39.63;20.85;100232.09;117370;1185;24230;-59
2021/08/17 10:40:51;;;;;;;11.70;4.10;;;;;;;39.88;20.59;100232.09;117403;1185;21864;-69
2021/08/17 10:43:21;;;;;;;5.40;3.60;;;;;;;39.94;20.04;100235.71;117437;1185;22927;-68
2021/08/17 10:45:53;;;;;;;6.00;3.70;;;;;;;39.91;19.93;100234.25;117458;1182;24173;-69
2021/08/17 10:48:48;;;;;;;6.70;3.60;;;;;;;39.81;19.69;100227.19;117418;1185;21867;-59
2021/08/17 10:51:18;;;;;;;5.60;4.00;;;;;;;39.74;19.98;100228.26;117509;1183;22622;-59
2021/08/17 10:53:59;;;;;;;6.30;4.20;;;;;;;39.68;20.34;100223.69;117494;1183;23487;-70
2021/08/17 10:56:31;;;;;;;8.40;3.60;;;;;;;39.68;19.88;100225.02;117395;1183;22629;-60
2021/08/17 10:59:01;;;;;;;6.60;3.90;;;;;;;39.77;19.65;100225.33;117333;1183;21967;-71
2021/08/17 11:01:30;;;;;;;5.40;3.90;;;;;;;39.87;19.63;100219.55;117454;1185;23566;-60
2021/08/17 11:04:06;;;;;;;5.40;3.70;;;;;;;40.05;20.41;100220.80;117339;1182;23826;-59
2021/08/17 11:06:47;;;;;;;5.00;4.10;;;;;;;40.33;19.94;100223.88;117469;1176;21855;-58
2021/08/17 11:09:20;;;;;;;7.10;3.70;;;;;;;40.56;19.29;100217.44;117389;1182;21872;-59
2021/08/17 11:11:59;;;;;;;5.90;4.00;;;;;;;40.75;19.31;100212.06;117450;1182;22982;-57
2021/08/17 11:14:29;;;;;;;6.50;4.40;;;;;;;40.94;19.21;100214.77;117370;1185;23455;-56
2021/08/17 11:17:03;;;;;;;5.40;4.10;;;;;;;40.90;19.79;100212.90;117431;1183;21877;-59
2021/08/17 11:19:33;;;;;;;8.30;4.30;;;;;;;40.89;19.85;100208.36;117362;1185;21912;-58
2021/08/17 11:22:04;;;;;;;5.70;4.00;;;;;;;40.98;19.58;100208.30;117441;1186;23451;-58
2021/08/17 11:24:40;;;;;;;7.20;4.40;;;;;;;41.08;19.63;100209.96;117417;1185;21886;-59
2021/08/17 11:27:14;;;;;;;5.00;4.10;;;;;;;41.15;19.63;100208.48;117368;1186;23000;-68
2021/08/17 11:29:53;;;;;;;8.80;5.40;;;;;;;41.11;19.50;100206.11;117416;1184;23593;-57
2021/08/17 11:32:25;;;;;;;7.30;5.00;;;;;;;41.02;19.89;100208.10;117459;1185;22798;-58
2021/08/17 11:34:53;;;;;;;7.20;4.90;;;;;;;40.92;20.01;100206.39;117369;1183;22924;-59